createdAt,value
2019-06-26T00:01:50.238Z,55.40
2019-06-26T00:04:19.424Z,55.20
2019-06-26T00:06:48.618Z,55.30
2019-06-26T00:09:17.747Z,55.30
2019-06-26T00:11:46.945Z,55.80
2019-06-26T00:14:16.106Z,55.50
2019-06-26T00:16:45.176Z,55.40
2019-06-26T00:19:14.270Z,55.50
2019-06-26T00:21:43.438Z,55.40
2019-06-26T00:24:12.474Z,55.70
2019-06-26T00:26:41.597Z,55.60
2019-06-26T00:29:10.720Z,55.60
2019-06-26T00:31:39.839Z,55.90
2019-06-26T00:34:08.948Z,55.70
2019-06-26T00:36:38.145Z,55.90
2019-06-26T00:39:07.533Z,56.00
2019-06-26T00:41:36.662Z,56.20
2019-06-26T00:44:05.990Z,56.30
2019-06-26T00:46:35.092Z,56.60
2019-06-26T00:49:04.639Z,56.40
2019-06-26T00:51:34.300Z,56.20
2019-06-26T00:54:03.456Z,56.30
2019-06-26T00:56:32.622Z,56.60
2019-06-26T00:59:03.011Z,56.30
2019-06-26T01:01:32.139Z,56.40
2019-06-26T01:04:05.433Z,56.50
2019-06-26T01:06:43.726Z,56.70
2019-06-26T01:09:14.765Z,56.50
2019-06-26T01:11:44.743Z,56.60
2019-06-26T01:14:13.956Z,56.90
2019-06-26T01:16:43.121Z,56.90
2019-06-26T01:19:12.235Z,57.10
2019-06-26T01:21:41.357Z,57.40
2019-06-26T01:24:11.381Z,57.30
2019-06-26T01:26:40.517Z,57.10
2019-06-26T01:29:09.691Z,57.40
2019-06-26T01:31:38.761Z,57.30
2019-06-26T01:34:07.854Z,57.30
2019-06-26T01:36:36.966Z,57.70
2019-06-26T01:39:07.099Z,57.30
2019-06-26T01:41:37.021Z,57.40
2019-06-26T01:44:14.853Z,57.50
2019-06-26T01:46:37.187Z,57.70
2019-06-26T01:49:06.490Z,57.70
2019-06-26T01:51:35.618Z,58.00
2019-06-26T01:54:04.815Z,58.30
2019-06-26T01:56:33.916Z,58.00
2019-06-26T01:59:03.097Z,58.00
2019-06-26T02:01:32.299Z,57.90
2019-06-26T02:04:02.183Z,57.90
2019-06-26T02:06:31.348Z,57.70
2019-06-26T02:09:00.468Z,57.60
2019-06-26T02:11:29.584Z,57.70
2019-06-26T02:13:58.731Z,58.50
2019-06-26T02:16:27.828Z,58.00
2019-06-26T02:19:00.477Z,57.90
2019-06-26T02:21:30.186Z,57.80
2019-06-26T02:23:59.304Z,58.10
2019-06-26T02:26:28.415Z,57.90
2019-06-26T02:28:58.758Z,57.90
2019-06-26T02:31:27.882Z,58.00
2019-06-26T02:33:57.080Z,58.50
2019-06-26T02:36:26.294Z,58.40
2019-06-26T02:38:55.489Z,58.50
2019-06-26T02:41:24.671Z,58.30
2019-06-26T02:43:53.809Z,58.50
2019-06-26T02:46:23.724Z,59.00
2019-06-26T02:48:52.989Z,58.80
2019-06-26T02:51:22.131Z,58.70
2019-06-26T02:53:51.245Z,58.70
2019-06-26T02:56:20.362Z,58.50
2019-06-26T02:58:49.504Z,58.60
2019-06-26T03:01:18.628Z,58.80
2019-06-26T03:03:47.761Z,59.10
2019-06-26T03:06:16.946Z,58.90
2019-06-26T03:08:46.118Z,58.70
2019-06-26T03:11:15.334Z,58.80
2019-06-26T03:13:44.483Z,59.00
2019-06-26T03:16:13.679Z,58.30
2019-06-26T03:18:42.914Z,59.40
2019-06-26T03:21:12.147Z,59.00
2019-06-26T03:23:41.248Z,59.20
2019-06-26T03:26:10.423Z,59.40
2019-06-26T03:28:39.591Z,58.70
2019-06-26T03:31:08.793Z,58.90
2019-06-26T03:33:37.982Z,59.00
2019-06-26T03:36:07.140Z,59.30
2019-06-26T03:38:36.305Z,58.90
2019-06-26T03:41:05.491Z,59.30
2019-06-26T03:43:35.753Z,60.20
2019-06-26T03:46:05.059Z,59.50
2019-06-26T03:48:34.250Z,59.30
2019-06-26T03:51:03.474Z,58.80
2019-06-26T03:53:32.584Z,59.20
2019-06-26T03:56:02.114Z,59.40
2019-06-26T03:58:31.382Z,59.50
2019-06-26T04:01:01.107Z,59.50
2019-06-26T04:03:30.309Z,59.90
2019-06-26T04:06:00.112Z,59.50
2019-06-26T04:08:29.451Z,59.50
2019-06-26T04:10:58.761Z,59.70
2019-06-26T04:13:27.913Z,59.60
2019-06-26T04:15:57.062Z,60.00
2019-06-26T04:18:26.152Z,59.60
2019-06-26T04:20:55.271Z,59.50
2019-06-26T04:23:24.434Z,59.50
2019-06-26T04:25:53.528Z,59.30
2019-06-26T04:28:25.054Z,59.90
2019-06-26T04:30:54.212Z,59.60
2019-06-26T04:33:23.320Z,60.00
2019-06-26T04:35:52.514Z,59.70
2019-06-26T04:38:21.700Z,59.50
2019-06-26T04:40:50.795Z,59.60
2019-06-26T04:43:20.653Z,60.00
2019-06-26T04:45:58.212Z,60.00
2019-06-26T04:48:20.616Z,60.30
2019-06-26T04:50:49.769Z,59.90
2019-06-26T04:53:19.044Z,59.60
2019-06-26T04:55:48.541Z,59.60
2019-06-26T04:58:17.672Z,59.30
2019-06-26T05:00:46.858Z,59.60
2019-06-26T05:03:16.120Z,59.90
2019-06-26T05:05:45.292Z,59.60
2019-06-26T05:08:14.538Z,59.50
2019-06-26T05:10:43.717Z,59.60
2019-06-26T05:13:12.901Z,59.40
2019-06-26T05:15:42.212Z,61.20
2019-06-26T05:18:11.445Z,59.90
2019-06-26T05:20:40.648Z,60.10
2019-06-26T05:23:09.822Z,60.40
2019-06-26T05:25:39.025Z,59.80
2019-06-26T05:28:08.610Z,60.00
2019-06-26T05:30:38.578Z,59.70
2019-06-26T05:33:07.718Z,60.20
2019-06-26T05:35:36.989Z,60.70
2019-06-26T05:38:06.207Z,60.30
2019-06-26T05:40:35.395Z,59.80
2019-06-26T05:43:04.638Z,59.60
2019-06-26T05:45:33.868Z,59.40
2019-06-26T05:48:03.147Z,59.70
2019-06-26T05:50:33.108Z,59.90
2019-06-26T05:53:02.352Z,59.70
2019-06-26T05:55:31.696Z,59.50
2019-06-26T05:58:00.975Z,59.80
2019-06-26T06:00:30.123Z,59.90
2019-06-26T06:02:59.256Z,59.80
2019-06-26T06:05:29.334Z,59.50
2019-06-26T06:07:58.572Z,60.00
2019-06-26T06:10:27.663Z,60.00
2019-06-26T06:12:59.875Z,60.00
2019-06-26T06:15:29.419Z,59.80
2019-06-26T06:17:58.658Z,59.90
2019-06-26T06:20:39.591Z,61.00
2019-06-26T06:23:08.780Z,61.40
2019-06-26T06:25:37.900Z,60.10
2019-06-26T06:28:08.123Z,60.00
2019-06-26T06:30:38.310Z,60.80
2019-06-26T06:33:07.438Z,61.00
2019-06-26T06:35:36.702Z,60.70
2019-06-26T06:38:05.854Z,59.80
2019-06-26T06:40:35.119Z,60.30
2019-06-26T06:43:04.266Z,59.60
2019-06-26T06:45:33.547Z,60.60
2019-06-26T06:48:04.014Z,59.50
2019-06-26T06:50:33.211Z,61.20
2019-06-26T06:53:03.833Z,60.10
2019-06-26T06:55:34.052Z,59.40
2019-06-26T06:58:04.743Z,59.70
2019-06-26T07:00:36.611Z,59.40
2019-06-26T07:03:08.265Z,60.30
2019-06-26T07:05:38.052Z,59.20
2019-06-26T07:08:07.441Z,60.60
2019-06-26T07:10:36.711Z,59.10
2019-06-26T07:13:09.741Z,59.40
2019-06-26T07:15:38.986Z,59.70
2019-06-26T07:18:08.943Z,59.70
2019-06-26T07:20:38.277Z,58.90
2019-06-26T07:23:07.569Z,58.90
2019-06-26T07:25:36.791Z,59.70
2019-06-26T07:28:07.679Z,59.10
2019-06-26T07:30:36.902Z,58.90
2019-06-26T07:33:06.214Z,58.90
2019-06-26T07:35:35.482Z,59.00
2019-06-26T07:38:04.728Z,58.50
2019-06-26T07:40:36.327Z,58.80
2019-06-26T07:43:16.545Z,58.10
2019-06-26T07:46:35.885Z,58.80
2019-06-26T07:49:29.898Z,58.20
2019-06-26T07:52:38.693Z,59.40
2019-06-26T07:56:20.952Z,58.40
2019-06-26T07:58:30.047Z,59.10
2019-06-26T08:01:10.996Z,59.50
2019-06-26T08:04:09.103Z,58.50
2019-06-26T08:06:42.350Z,58.40
2019-06-26T08:09:13.864Z,58.90
2019-06-26T08:12:59.618Z,58.50
2019-06-26T08:16:11.688Z,58.30
2019-06-26T08:18:58.981Z,58.60
2019-06-26T08:22:07.766Z,57.70
2019-06-26T08:24:46.488Z,58.40
2019-06-26T08:27:41.995Z,57.20
2019-06-26T08:30:23.908Z,58.10
2019-06-26T08:33:04.287Z,58.60
2019-06-26T08:35:58.681Z,57.70
2019-06-26T08:38:38.546Z,58.00
2019-06-26T08:41:18.937Z,57.50
2019-06-26T08:44:12.197Z,58.40
2019-06-26T08:46:52.437Z,57.30
2019-06-26T08:49:27.877Z,57.60
2019-06-26T08:51:57.605Z,57.90
2019-06-26T08:54:40.435Z,57.80
2019-06-26T08:57:14.539Z,57.90
2019-06-26T09:00:25.170Z,57.50
2019-06-26T09:03:03.649Z,57.80
2019-06-26T09:05:48.345Z,57.50
2019-06-26T09:08:28.771Z,57.10
2019-06-26T09:11:22.563Z,57.10
2019-06-26T09:14:31.943Z,57.80
2019-06-26T09:17:44.539Z,56.60
2019-06-26T09:23:31.353Z,57.70
2019-06-26T09:26:07.365Z,57.70
2019-06-26T09:28:57.861Z,58.60
2019-06-26T09:31:55.292Z,57.90
2019-06-26T09:35:45.475Z,58.40
2019-06-26T09:38:26.935Z,58.50
2019-06-26T09:41:12.232Z,57.80
2019-06-26T09:47:38.298Z,58.10
2019-06-26T09:50:35.446Z,58.20
2019-06-26T09:53:13.828Z,57.90
2019-06-26T09:56:07.722Z,58.30
2019-06-26T09:59:00.267Z,57.70
2019-06-26T10:02:21.321Z,57.60
2019-06-26T10:06:12.907Z,59.20
2019-06-26T10:11:38.291Z,57.90
2019-06-26T10:15:25.369Z,57.80
2019-06-26T10:18:09.634Z,58.40
2019-06-26T10:20:42.826Z,59.10
2019-06-26T10:23:18.066Z,57.90
2019-06-26T10:25:48.655Z,57.20
2019-06-26T10:28:17.832Z,57.60
2019-06-26T10:30:47.084Z,57.80
2019-06-26T10:33:16.980Z,58.10
2019-06-26T10:35:46.156Z,57.30
2019-06-26T10:38:15.343Z,58.20
2019-06-26T10:40:44.589Z,58.30
2019-06-26T10:43:13.765Z,57.50
2019-06-26T10:45:43.247Z,57.30
2019-06-26T10:48:18.057Z,57.10
2019-06-26T10:50:51.967Z,56.90
2019-06-26T10:53:18.385Z,57.50
2019-06-26T10:55:55.229Z,57.20
2019-06-26T11:05:08.913Z,57.40
2019-06-26T11:07:38.561Z,57.40
2019-06-26T11:10:11.648Z,57.20
2019-06-26T11:12:49.081Z,57.70
2019-06-26T11:15:18.084Z,57.30
2019-06-26T11:17:47.328Z,57.20
2019-06-26T11:20:18.082Z,57.50
2019-06-26T11:22:51.457Z,56.60
2019-06-26T11:25:26.429Z,57.10
2019-06-26T11:27:57.517Z,56.40
2019-06-26T11:30:30.171Z,56.40
2019-06-26T11:32:59.440Z,56.50
2019-06-26T11:35:28.643Z,56.40
2019-06-26T11:37:57.826Z,56.20
2019-06-26T11:40:27.097Z,56.30
2019-06-26T11:42:56.349Z,56.00
2019-06-26T11:45:25.560Z,55.90
2019-06-26T11:47:54.795Z,56.00
2019-06-26T11:50:24.093Z,55.80
2019-06-26T11:52:55.176Z,55.70
2019-06-26T11:55:24.433Z,55.70
2019-06-26T11:57:53.596Z,55.40
2019-06-26T12:00:24.562Z,55.20
2019-06-26T12:02:54.038Z,54.90
2019-06-26T12:05:25.511Z,55.30
2019-06-26T12:07:54.818Z,54.90
2019-06-26T12:10:24.074Z,54.80
2019-06-26T12:12:54.319Z,54.70
2019-06-26T12:15:23.843Z,54.70
2019-06-26T12:17:53.124Z,54.70
2019-06-26T12:20:23.491Z,54.40
2019-06-26T12:22:52.715Z,54.30
2019-06-26T12:25:22.050Z,54.20
2019-06-26T12:27:56.571Z,54.00
2019-06-26T12:30:28.681Z,53.90
2019-06-26T12:33:03.315Z,53.90
2019-06-26T12:35:37.559Z,53.40
2019-06-26T12:38:09.828Z,53.10
2019-06-26T12:40:43.466Z,53.20
2019-06-26T12:43:20.266Z,52.50
2019-06-26T12:45:49.634Z,52.70
2019-06-26T12:48:26.501Z,52.70
2019-06-26T12:50:57.055Z,52.60
2019-06-26T12:53:32.712Z,52.60
2019-06-26T12:56:13.164Z,52.50
2019-06-26T12:58:59.811Z,52.20
2019-06-26T13:01:45.341Z,52.00
2019-06-26T13:04:17.225Z,51.40
2019-06-26T13:06:49.289Z,51.20
2019-06-26T13:09:18.426Z,50.70
2019-06-26T13:11:56.307Z,51.00
2019-06-26T13:14:25.984Z,50.50
2019-06-26T13:16:59.998Z,50.40
2019-06-26T13:19:26.987Z,49.90
2019-06-26T13:21:59.238Z,49.60
2019-06-26T13:24:31.774Z,49.50
2019-06-26T13:27:02.438Z,49.20
2019-06-26T13:29:34.099Z,48.50
2019-06-26T13:32:07.488Z,47.80
2019-06-26T13:34:38.087Z,48.40
2019-06-26T13:37:10.600Z,48.30
2019-06-26T13:39:42.613Z,47.50
2019-06-26T13:42:15.509Z,47.20
2019-06-26T13:44:45.002Z,47.30
2019-06-26T13:47:31.358Z,46.10
2019-06-26T13:50:05.757Z,46.60
2019-06-26T13:52:41.664Z,46.90
2019-06-26T13:55:11.550Z,46.70
2019-06-26T13:57:47.733Z,47.00
2019-06-26T14:00:22.561Z,46.50
2019-06-26T14:02:54.523Z,46.30
2019-06-26T14:05:23.958Z,45.70
2019-06-26T14:07:57.557Z,45.40
2019-06-26T14:10:29.420Z,45.60
2019-06-26T14:13:04.857Z,45.30
2019-06-26T14:15:41.340Z,45.30
2019-06-26T14:18:10.913Z,45.00
2019-06-26T14:20:43.295Z,45.30
2019-06-26T14:23:15.498Z,45.30
2019-06-26T14:25:46.962Z,45.70
2019-06-26T14:28:19.512Z,44.40
2019-06-26T14:30:47.593Z,44.30
2019-06-26T14:33:19.416Z,45.10
2019-06-26T14:35:53.560Z,44.90
2019-06-26T14:38:22.946Z,44.80
2019-06-26T14:40:57.000Z,44.90
2019-06-26T14:43:26.469Z,45.00
2019-06-26T14:45:56.838Z,43.80
2019-06-26T14:48:28.963Z,43.50
2019-06-26T14:51:08.414Z,43.80
2019-06-26T14:53:38.567Z,44.00
2019-06-26T14:56:07.774Z,44.50
2019-06-26T14:58:36.949Z,44.40
2019-06-26T15:01:06.146Z,45.00
2019-06-26T15:03:35.617Z,44.90
2019-06-26T15:06:16.057Z,44.70
2019-06-26T15:08:37.922Z,43.80
2019-06-26T15:11:08.166Z,44.30
2019-06-26T15:13:38.579Z,44.50
2019-06-26T15:16:08.065Z,43.70
2019-06-26T15:18:37.315Z,43.90
2019-06-26T15:21:07.739Z,44.50
2019-06-26T15:23:39.864Z,44.30
2019-06-26T15:26:11.265Z,43.40
2019-06-26T15:28:40.449Z,44.30
2019-06-26T15:31:09.638Z,43.70
2019-06-26T15:33:41.161Z,43.30
2019-06-26T15:36:10.412Z,43.80
2019-06-26T15:38:43.404Z,43.90
2019-06-26T15:41:25.357Z,43.10
2019-06-26T15:43:50.509Z,42.70
2019-06-26T15:46:19.828Z,43.30
2019-06-26T15:49:51.258Z,43.50
2019-06-26T15:51:37.449Z,43.40
2019-06-26T15:54:09.232Z,44.00
2019-06-26T15:56:38.564Z,43.90
2019-06-26T16:03:19.814Z,44.70
2019-06-26T16:05:46.276Z,44.00
2019-06-26T16:08:20.915Z,43.90
2019-06-26T16:10:50.064Z,43.60
2019-06-26T16:13:19.409Z,43.90
2019-06-26T16:15:48.766Z,43.60
2019-06-26T16:18:26.588Z,43.50
2019-06-26T16:20:55.820Z,42.70
2019-06-26T16:23:24.996Z,43.70
2019-06-26T16:25:54.144Z,43.50
2019-06-26T16:28:23.264Z,43.70
2019-06-26T16:30:52.440Z,43.80
2019-06-26T16:33:21.579Z,43.70
2019-06-26T16:35:50.870Z,44.30
2019-06-26T16:38:22.546Z,44.30
2019-06-26T16:40:51.878Z,44.20
2019-06-26T16:43:21.124Z,44.00
2019-06-26T16:45:53.275Z,44.20
2019-06-26T16:48:23.360Z,44.30
2019-06-26T16:50:52.563Z,43.90
2019-06-26T16:53:21.873Z,44.20
2019-06-26T16:55:51.095Z,44.50
2019-06-26T16:58:20.258Z,44.20
2019-06-26T17:00:49.664Z,44.00
2019-06-26T17:03:30.607Z,43.80
2019-06-26T17:05:59.845Z,43.90
2019-06-26T17:08:37.642Z,44.50
2019-06-26T17:11:09.897Z,44.70
2019-06-26T17:13:39.121Z,45.00
2019-06-26T17:16:08.329Z,45.10
2019-06-26T17:18:37.575Z,45.00
2019-06-26T17:21:06.833Z,45.30
2019-06-26T17:23:36.080Z,45.10
2019-06-26T17:26:05.659Z,45.20
2019-06-26T17:28:34.843Z,45.00
2019-06-26T17:31:04.036Z,45.00
2019-06-26T17:33:36.673Z,44.90
2019-06-26T17:36:05.683Z,44.90
2019-06-26T17:38:34.911Z,45.50
2019-06-26T17:41:04.094Z,45.30
2019-06-26T17:43:33.667Z,45.60
2019-06-26T17:46:03.374Z,45.60
2019-06-26T17:48:32.529Z,45.60
2019-06-26T17:51:01.729Z,45.60
2019-06-26T17:53:30.867Z,45.90
2019-06-26T17:55:59.966Z,46.20
2019-06-26T17:58:29.159Z,46.10
2019-06-26T18:00:59.596Z,46.50
2019-06-26T18:03:28.845Z,46.80
2019-06-26T18:05:57.983Z,47.00
2019-06-26T18:08:29.444Z,47.30
2019-06-26T18:10:58.550Z,47.70
2019-06-26T18:13:28.755Z,47.50
2019-06-26T18:15:58.002Z,47.70
2019-06-26T18:18:29.308Z,47.90
2019-06-26T18:20:58.481Z,48.00
2019-06-26T18:23:37.234Z,48.10
2019-06-26T18:26:12.403Z,48.50
2019-06-26T18:28:29.445Z,48.50
2019-06-26T18:31:01.476Z,48.70
2019-06-26T18:33:31.719Z,48.80
2019-06-26T18:36:04.782Z,49.00
2019-06-26T18:38:35.047Z,49.20
2019-06-26T18:41:13.779Z,49.50
2019-06-26T18:44:04.288Z,50.00
2019-06-26T18:46:33.526Z,50.10
2019-06-26T18:49:03.135Z,50.40
2019-06-26T18:51:32.387Z,50.30
2019-06-26T18:54:02.471Z,50.20
2019-06-26T18:56:31.706Z,50.60
2019-06-26T18:59:03.179Z,50.50
2019-06-26T19:01:32.640Z,50.80
2019-06-26T19:04:02.101Z,50.70
2019-06-26T19:06:31.877Z,50.90
2019-06-26T19:09:01.408Z,51.00
2019-06-26T19:11:31.546Z,50.90
2019-06-26T19:14:02.824Z,51.40
2019-06-26T19:16:36.054Z,51.40
2019-06-26T19:19:03.490Z,51.40
2019-06-26T19:21:32.804Z,51.70
2019-06-26T19:24:10.009Z,51.80
2019-06-26T19:26:33.763Z,52.20
2019-06-26T19:29:06.065Z,52.20
2019-06-26T19:31:36.397Z,52.10
2019-06-26T19:34:05.599Z,52.00
2019-06-26T19:36:49.098Z,52.10
2019-06-26T19:39:07.656Z,52.60
2019-06-26T19:41:38.353Z,53.10
2019-06-26T19:44:08.966Z,52.70
2019-06-26T19:46:41.012Z,53.50
2019-06-26T19:49:10.149Z,53.00
2019-06-26T19:51:39.267Z,52.70
2019-06-26T19:54:08.426Z,53.60
2019-06-26T19:56:37.697Z,53.20
2019-06-26T19:59:06.962Z,54.00
2019-06-26T20:01:36.215Z,53.70
2019-06-26T20:04:05.372Z,53.50
2019-06-26T20:06:35.724Z,54.00
2019-06-26T20:09:07.801Z,53.80
2019-06-26T20:11:58.238Z,53.70
2019-06-26T20:14:36.573Z,54.10
2019-06-26T20:17:05.785Z,53.70
2019-06-26T20:19:34.911Z,53.80
2019-06-26T20:22:04.122Z,53.90
2019-06-26T20:24:44.028Z,53.90
2019-06-26T20:27:20.500Z,53.90
2019-06-26T20:29:54.951Z,53.90
2019-06-26T20:32:24.376Z,54.80
2019-06-26T20:34:56.200Z,54.80
2019-06-26T20:37:28.638Z,54.70
2019-06-26T20:39:59.364Z,54.50
2019-06-26T20:42:41.691Z,54.80
2019-06-26T20:45:58.729Z,54.60
2019-06-26T20:48:25.096Z,54.60
2019-06-26T20:50:57.387Z,54.60
2019-06-26T20:53:27.987Z,55.80
2019-06-26T20:55:58.165Z,56.00
2019-06-26T20:58:27.416Z,55.30
2019-06-26T21:00:56.537Z,55.60
2019-06-26T21:03:25.699Z,55.30
2019-06-26T21:05:54.955Z,54.90
2019-06-26T21:08:24.860Z,56.20
2019-06-26T21:10:54.023Z,56.80
2019-06-26T21:13:23.337Z,55.90
2019-06-26T21:15:53.106Z,55.50
2019-06-26T21:18:22.741Z,56.60
2019-06-26T21:20:51.881Z,56.10
2019-06-26T21:23:23.279Z,55.70
2019-06-26T21:25:51.882Z,56.00
2019-06-26T21:28:21.030Z,56.40
2019-06-26T21:30:50.184Z,56.10
2019-06-26T21:33:19.396Z,56.80
2019-06-26T21:35:48.572Z,56.30
2019-06-26T21:38:17.774Z,56.40
2019-06-26T21:40:47.008Z,57.10
2019-06-26T21:43:16.242Z,57.40
2019-06-26T21:45:45.430Z,56.70
2019-06-26T21:48:14.555Z,57.00
2019-06-26T21:50:43.997Z,57.10
2019-06-26T21:53:13.147Z,57.90
2019-06-26T21:55:42.306Z,56.50
2019-06-26T21:58:11.516Z,57.20
2019-06-26T22:00:42.390Z,56.90
2019-06-26T22:03:12.828Z,57.20
2019-06-26T22:05:42.002Z,58.40
2019-06-26T22:08:11.193Z,58.10
2019-06-26T22:10:40.317Z,58.30
2019-06-26T22:13:10.311Z,57.90
2019-06-26T22:15:39.467Z,58.80
2019-06-26T22:18:08.684Z,57.70
2019-06-26T22:20:37.950Z,58.00
2019-06-26T22:23:07.176Z,58.30
2019-06-26T22:25:49.990Z,57.60
2019-06-26T22:28:08.102Z,57.40
2019-06-26T22:30:37.455Z,57.20
2019-06-26T22:33:06.695Z,57.30
2019-06-26T22:35:35.842Z,57.50
2019-06-26T22:38:04.976Z,57.30
2019-06-26T22:40:34.101Z,58.90
2019-06-26T22:43:03.399Z,57.40
2019-06-26T22:45:32.626Z,57.90
2019-06-26T22:48:01.734Z,58.10
2019-06-26T22:50:30.898Z,58.70
2019-06-26T22:53:02.497Z,58.40
2019-06-26T22:55:31.628Z,58.50
2019-06-26T22:58:00.859Z,59.70
2019-06-26T23:00:30.087Z,58.30
2019-06-26T23:02:59.243Z,58.80
2019-06-26T23:05:28.535Z,59.00
2019-06-26T23:07:57.636Z,60.00
2019-06-26T23:10:26.802Z,60.30
2019-06-26T23:12:55.903Z,59.70
2019-06-26T23:15:25.750Z,58.80
2019-06-26T23:17:56.377Z,58.50
2019-06-26T23:20:26.121Z,59.10
2019-06-26T23:22:55.326Z,59.60
2019-06-26T23:25:24.501Z,58.70
2019-06-26T23:27:53.731Z,58.70
2019-06-26T23:30:22.877Z,59.10
2019-06-26T23:32:52.018Z,59.70
2019-06-26T23:35:22.512Z,59.90
2019-06-26T23:37:51.781Z,59.10
2019-06-26T23:40:21.032Z,59.80
2019-06-26T23:42:50.204Z,59.30
2019-06-26T23:45:19.345Z,59.00
2019-06-26T23:47:48.459Z,60.20
2019-06-26T23:50:17.823Z,60.30
2019-06-26T23:52:48.301Z,59.80
2019-06-26T23:55:17.433Z,59.20
2019-06-26T23:57:58.578Z,59.40
